In Rescue
 
Open Full Screen Window  High Contrast Mode
January 28, 2020 11:17 PM EST
Weather Information
Wind Direction
  ---
Wind Speed
  00 kt (0 mph)
Wind Gust
  00 kt (0 mph)
Altimeter
30.11 in
Visibility
10 SM
Temperature
01° C
34° F
Dewpoint
-01° C
30° F
Humidity
87%
1hr Rain Fall
00.00 in.
24hr Rain Fall
00.00 in.
Sky Condition
Overcast @ 2,500 ft
MVFR

METAR KI69 290417Z AUTO 00000KT 10SM OVC025 01/M01 A3011 RMK AO2 T00051015

FAA Disclaimer: The data displayed is for advisory purposes only and is not to be used for flight planning or operations.